Time;durP1;ratioP1;P1;durP2;ratioP2;P2;SDS_P1;SDS_P2;PMS_P1;PMS_P2;Temp;Humidity;BMP_temperature;BMP_pressure;BME280_temperature;BME280_humidity;BME280_pressure;Samples;Min_cycle;Max_cycle;Signal;HPM_P1;HPM_P2
2021/05/01 00:01:33;;;;;;;30.10;22.50;;;;;;;;;;5080028;28;20187;-76
2021/05/01 00:03:59;;;;;;;32.50;22.55;;;;;;;;;;5080034;28;20184;-74
2021/05/01 00:06:25;;;;;;;30.30;22.00;;;;;;;;;;5079383;28;20313;-78
2021/05/01 00:11:54;;;;;;;32.03;22.48;;;;;;;;;;5075533;28;20602;-73
2021/05/01 00:14:21;;;;;;;30.50;21.93;;;;;;;;;;5075730;28;20256;-76
2021/05/01 00:16:47;;;;;;;30.15;22.65;;;;;;;;;;5076006;28;20398;-77
2021/05/01 00:19:13;;;;;;;31.13;23.42;;;;;;;;;;5075429;28;20174;-76
2021/05/01 00:21:39;;;;;;;28.48;21.83;;;;;;;;;;5075494;28;20644;-74
2021/05/01 00:24:05;;;;;;;28.70;21.60;;;;;;;;;;5075451;28;20164;-74
2021/05/01 00:26:31;;;;;;;31.60;22.17;;;;;;;;;;5075721;28;20469;-79
2021/05/01 00:28:57;;;;;;;30.42;22.83;;;;;;;;;;5075305;28;20409;-76
2021/05/01 00:31:24;;;;;;;32.37;22.73;;;;;;;;;;5075452;28;20176;-75
2021/05/01 00:33:50;;;;;;;32.83;22.97;;;;;;;;;;5074201;28;20487;-74
2021/05/01 00:36:16;;;;;;;31.53;23.30;;;;;;;;;;5074121;28;20931;-74
2021/05/01 00:41:46;;;;;;;29.97;22.30;;;;;;;;;;5075308;28;20412;-72
2021/05/01 00:44:12;;;;;;;32.95;23.27;;;;;;;;;;5075114;28;20418;-81
2021/05/01 00:46:39;;;;;;;27.75;22.15;;;;;;;;;;5075142;28;20202;-75
2021/05/01 00:49:05;;;;;;;35.57;24.33;;;;;;;;;;5075215;28;20176;-78
2021/05/01 00:51:32;;;;;;;30.50;22.70;;;;;;;;;;5076331;28;20410;-74
2021/05/01 00:57:02;;;;;;;29.45;21.55;;;;;;;;;;5077109;28;20186;-76
2021/05/01 00:59:28;;;;;;;29.37;23.10;;;;;;;;;;5074543;28;20167;-77
2021/05/01 01:01:55;;;;;;;30.33;21.55;;;;;;;;;;5074908;28;20814;-81
2021/05/01 01:04:21;;;;;;;34.73;22.37;;;;;;;;;;5074678;28;20153;-76
2021/05/01 01:06:47;;;;;;;28.88;22.30;;;;;;;;;;5074518;28;20466;-75
2021/05/01 01:12:17;;;;;;;29.60;21.60;;;;;;;;;;5074355;28;20471;-73
2021/05/01 01:14:43;;;;;;;26.93;20.97;;;;;;;;;;5073257;28;20425;-73
2021/05/01 01:17:10;;;;;;;31.80;22.60;;;;;;;;;;5074422;28;20427;-75
2021/05/01 01:19:38;;;;;;;31.67;22.48;;;;;;;;;;5074426;28;20167;-74
2021/05/01 01:22:04;;;;;;;32.70;23.50;;;;;;;;;;5074344;28;20206;-73
2021/05/01 01:24:30;;;;;;;30.88;22.35;;;;;;;;;;5074746;28;20919;-74
2021/05/01 01:26:57;;;;;;;29.45;22.08;;;;;;;;;;5075026;28;20206;-76
2021/05/01 01:29:23;;;;;;;30.65;22.15;;;;;;;;;;5073970;28;20164;-76
2021/05/01 01:31:49;;;;;;;32.90;21.60;;;;;;;;;;5074475;28;20564;-76
2021/05/01 01:34:15;;;;;;;28.00;21.60;;;;;;;;;;5074228;28;20221;-80
2021/05/01 01:36:41;;;;;;;25.83;20.30;;;;;;;;;;5074236;28;20729;-77
2021/05/01 01:42:11;;;;;;;32.90;23.25;;;;;;;;;;5073769;28;20401;-74
2021/05/01 01:44:37;;;;;;;33.57;23.23;;;;;;;;;;5073913;28;20675;-73
2021/05/01 01:47:03;;;;;;;28.73;23.53;;;;;;;;;;5073881;28;20473;-74
2021/05/01 01:49:29;;;;;;;27.88;20.65;;;;;;;;;;5073870;28;20406;-75
2021/05/01 01:51:55;;;;;;;29.70;22.20;;;;;;;;;;5073941;28;20183;-73
2021/05/01 01:57:24;;;;;;;30.10;21.50;;;;;;;;;;5073966;28;20166;-73
2021/05/01 01:59:50;;;;;;;33.40;25.37;;;;;;;;;;5073359;28;20776;-73
2021/05/01 02:02:16;;;;;;;32.97;22.53;;;;;;;;;;5074023;28;20410;-73
2021/05/01 02:04:42;;;;;;;31.70;22.60;;;;;;;;;;5073964;28;20780;-73
2021/05/01 02:07:08;;;;;;;31.60;23.00;;;;;;;;;;5073374;28;20473;-73
2021/05/01 02:12:39;;;;;;;32.07;23.97;;;;;;;;;;5072905;28;20433;-75
2021/05/01 02:15:10;;;;;;;27.87;20.53;;;;;;;;;;5073463;28;20795;-73
2021/05/01 02:17:36;;;;;;;29.03;21.43;;;;;;;;;;5073490;28;20410;-72
2021/05/01 02:20:03;;;;;;;31.13;23.70;;;;;;;;;;5071968;28;20467;-73
2021/05/01 02:22:29;;;;;;;32.45;22.63;;;;;;;;;;5073007;28;20441;-74
2021/05/01 02:24:55;;;;;;;33.90;22.03;;;;;;;;;;5073194;28;20171;-73
2021/05/01 02:27:21;;;;;;;32.50;23.90;;;;;;;;;;5073060;28;20815;-73
2021/05/01 02:29:46;;;;;;;33.20;23.23;;;;;;;;;;5072667;28;20401;-73
2021/05/01 02:32:12;;;;;;;29.40;22.40;;;;;;;;;;5073105;28;20179;-72
2021/05/01 02:34:38;;;;;;;33.13;23.23;;;;;;;;;;5073214;28;20417;-73
2021/05/01 02:37:06;;;;;;;27.60;22.37;;;;;;;;;;5072954;28;20459;-72
2021/05/01 02:42:35;;;;;;;37.10;24.03;;;;;;;;;;5073484;28;20405;-75
2021/05/01 02:45:01;;;;;;;31.67;23.47;;;;;;;;;;5076679;28;20414;-74
2021/05/01 02:47:27;;;;;;;30.17;22.97;;;;;;;;;;5074767;28;21010;-72
2021/05/01 02:49:53;;;;;;;34.10;23.17;;;;;;;;;;5073255;28;20430;-73
2021/05/01 02:52:19;;;;;;;32.73;23.13;;;;;;;;;;5072896;28;20394;-75
2021/05/01 02:57:49;;;;;;;32.33;23.93;;;;;;;;;;5072900;28;20755;-73
2021/05/01 03:00:17;;;;;;;32.97;25.33;;;;;;;;;;5072373;28;20414;-73
2021/05/01 03:02:43;;;;;;;37.70;22.87;;;;;;;;;;5072707;28;20421;-73
2021/05/01 03:05:10;;;;;;;30.97;23.30;;;;;;;;;;5071319;28;20527;-72
2021/05/01 03:07:36;;;;;;;31.30;22.90;;;;;;;;;;5072641;28;20414;-75
2021/05/01 03:13:06;;;;;;;33.63;24.50;;;;;;;;;;5072541;28;20415;-74
2021/05/01 03:15:31;;;;;;;35.57;24.80;;;;;;;;;;5072828;28;20398;-75
2021/05/01 03:17:57;;;;;;;35.00;26.00;;;;;;;;;;5072652;28;20414;-75
2021/05/01 03:20:24;;;;;;;32.67;22.57;;;;;;;;;;5072637;28;20501;-73
2021/05/01 03:28:38;;;;;;;33.03;26.37;;;;;;;;;;5076104;28;21016;-75
2021/05/01 03:31:04;;;;;;;35.63;25.70;;;;;;;;;;5076597;28;20456;-73
2021/05/01 03:33:30;;;;;;;39.50;26.30;;;;;;;;;;5076689;28;20414;-74
2021/05/01 03:35:56;;;;;;;34.30;24.67;;;;;;;;;;5076589;28;20922;-73
2021/05/01 03:38:22;;;;;;;32.87;24.57;;;;;;;;;;5076458;28;20512;-74
2021/05/01 03:40:49;;;;;;;34.33;25.10;;;;;;;;;;5076458;28;20398;-76
2021/05/01 03:43:16;;;;;;;38.10;25.53;;;;;;;;;;5076269;28;20414;-72
2021/05/01 03:45:42;;;;;;;37.57;25.87;;;;;;;;;;5076135;28;20452;-81
2021/05/01 03:48:10;;;;;;;33.27;24.20;;;;;;;;;;5076387;28;20422;-75
2021/05/01 03:50:36;;;;;;;41.30;27.70;;;;;;;;;;5076659;28;20518;-77
2021/05/01 03:53:02;;;;;;;37.27;26.07;;;;;;;;;;5076489;28;20756;-74
2021/05/01 03:55:28;;;;;;;35.13;25.77;;;;;;;;;;5076087;28;20418;-73
2021/05/01 03:57:54;;;;;;;34.97;25.13;;;;;;;;;;5076144;28;20454;-74
2021/05/01 04:00:20;;;;;;;33.63;25.67;;;;;;;;;;5075584;28;20449;-75
2021/05/01 04:02:46;;;;;;;36.50;26.00;;;;;;;;;;5075799;28;20418;-74
2021/05/01 04:05:15;;;;;;;36.77;25.90;;;;;;;;;;5075986;28;20433;-73
2021/05/01 04:07:41;;;;;;;37.30;26.70;;;;;;;;;;5075806;28;20422;-78
2021/05/01 04:13:11;;;;;;;36.30;24.70;;;;;;;;;;5076368;28;20409;-76
2021/05/01 04:15:37;;;;;;;33.50;23.80;;;;;;;;;;5074525;28;20483;-76
2021/05/01 04:18:03;;;;;;;34.73;25.10;;;;;;;;;;5075961;28;20771;-75
2021/05/01 04:20:29;;;;;;;36.40;24.13;;;;;;;;;;5075313;28;20548;-78
2021/05/01 04:22:55;;;;;;;34.70;24.93;;;;;;;;;;5075326;28;20905;-75
2021/05/01 04:28:25;;;;;;;34.30;24.37;;;;;;;;;;5075138;28;20942;-76
2021/05/01 04:30:51;;;;;;;37.60;25.63;;;;;;;;;;5075450;28;20435;-73
2021/05/01 04:33:17;;;;;;;32.17;23.93;;;;;;;;;;5077744;28;20922;-77
2021/05/01 04:35:43;;;;;;;35.17;24.33;;;;;;;;;;5080770;28;20461;-74
2021/05/01 04:38:09;;;;;;;34.37;23.37;;;;;;;;;;5075922;28;20931;-78
2021/05/01 04:43:41;;;;;;;39.28;25.05;;;;;;;;;;5075122;28;20428;-76
2021/05/01 04:46:07;;;;;;;32.87;24.17;;;;;;;;;;5075110;28;20203;-77
2021/05/01 04:48:33;;;;;;;38.23;26.40;;;;;;;;;;5076082;28;20952;-78
2021/05/01 04:50:59;;;;;;;36.13;26.27;;;;;;;;;;5075068;28;20424;-74
2021/05/01 04:53:25;;;;;;;32.97;23.70;;;;;;;;;;5074899;28;20521;-78
2021/05/01 04:58:54;;;;;;;32.07;22.70;;;;;;;;;;5074648;28;20179;-75
2021/05/01 05:01:20;;;;;;;28.93;22.37;;;;;;;;;;5074668;28;20403;-74
2021/05/01 05:03:47;;;;;;;27.30;22.13;;;;;;;;;;5074917;28;20912;-77
2021/05/01 05:06:13;;;;;;;32.17;22.27;;;;;;;;;;5074833;28;20477;-79
2021/05/01 05:08:39;;;;;;;30.97;22.67;;;;;;;;;;5074875;28;20414;-82
2021/05/01 05:14:09;;;;;;;28.60;21.90;;;;;;;;;;5074966;28;20436;-81
2021/05/01 05:16:35;;;;;;;27.87;20.40;;;;;;;;;;5075055;28;20511;-81
2021/05/01 05:19:01;;;;;;;28.40;21.80;;;;;;;;;;5074730;28;20421;-76
2021/05/01 05:21:27;;;;;;;26.80;19.60;;;;;;;;;;5074723;28;20444;-80
2021/05/01 05:23:53;;;;;;;25.50;18.70;;;;;;;;;;5074521;28;20410;-77
2021/05/01 05:26:19;;;;;;;29.57;21.00;;;;;;;;;;5072927;28;20576;-78
2021/05/01 05:28:45;;;;;;;31.00;22.87;;;;;;;;;;5072551;28;20402;-79
2021/05/01 05:31:11;;;;;;;37.33;23.48;;;;;;;;;;5073902;28;20859;-81
2021/05/01 05:33:37;;;;;;;29.90;22.87;;;;;;;;;;5073997;28;20182;-75
2021/05/01 05:36:03;;;;;;;29.23;22.00;;;;;;;;;;5074437;28;20418;-75
2021/05/01 05:38:29;;;;;;;31.95;22.25;;;;;;;;;;5073849;28;20416;-75
2021/05/01 05:43:59;;;;;;;24.37;19.60;;;;;;;;;;5073750;28;20425;-78
2021/05/01 05:46:25;;;;;;;27.43;20.43;;;;;;;;;;5072930;28;20473;-80
2021/05/01 05:48:51;;;;;;;27.30;20.43;;;;;;;;;;5073776;28;20799;-82
2021/05/01 05:51:17;;;;;;;29.23;22.43;;;;;;;;;;5073608;28;20417;-74
2021/05/01 05:53:43;;;;;;;27.97;21.23;;;;;;;;;;5073265;28;20417;-73
2021/05/01 05:59:13;;;;;;;27.97;21.33;;;;;;;;;;5072706;28;20417;-77
2021/05/01 06:01:40;;;;;;;32.57;23.23;;;;;;;;;;5073046;28;20414;-73
2021/05/01 06:04:14;;;;;;;32.40;22.67;;;;;;;;;;5072956;28;20501;-84
2021/05/01 06:06:42;;;;;;;29.97;21.83;;;;;;;;;;5073568;28;20469;-83
2021/05/01 06:14:58;;;;;;;26.00;20.00;;;;;;;;;;5073777;28;20436;-74
2021/05/01 06:17:24;;;;;;;30.00;23.23;;;;;;;;;;5073628;28;20498;-77
2021/05/01 06:19:52;;;;;;;29.37;22.70;;;;;;;;;;5072018;28;20461;-74
2021/05/01 06:22:18;;;;;;;34.00;23.10;;;;;;;;;;5073516;28;20415;-74
2021/05/01 06:24:44;;;;;;;27.93;20.67;;;;;;;;;;5077558;28;20552;-77
2021/05/01 06:27:10;;;;;;;31.03;21.67;;;;;;;;;;5081712;28;20855;-78
2021/05/01 06:29:37;;;;;;;25.97;20.90;;;;;;;;;;5073419;28;20769;-83
2021/05/01 06:32:05;;;;;;;30.23;21.67;;;;;;;;;;5073432;28;20417;-74
2021/05/01 06:34:31;;;;;;;28.23;20.10;;;;;;;;;;5072861;28;20944;-75
2021/05/01 06:36:58;;;;;;;23.50;18.70;;;;;;;;;;5071917;28;20517;-74
2021/05/01 06:39:25;;;;;;;20.53;15.63;;;;;;;;;;5073287;28;20434;-75
2021/05/01 06:44:54;;;;;;;22.70;17.37;;;;;;;;;;5072763;28;20556;-73
2021/05/01 06:47:27;;;;;;;20.27;15.00;;;;;;;;;;5072429;28;20505;-71
2021/05/01 06:49:55;;;;;;;27.83;18.30;;;;;;;;;;5072789;28;20432;-75
2021/05/01 06:52:23;;;;;;;20.87;15.60;;;;;;;;;;5072433;28;20499;-73
2021/05/01 06:54:50;;;;;;;21.60;16.60;;;;;;;;;;5072931;28;20442;-80
2021/05/01 06:57:16;;;;;;;22.17;17.57;;;;;;;;;;5073077;28;20422;-76
2021/05/01 06:59:42;;;;;;;23.30;17.43;;;;;;;;;;5072664;28;20411;-76
2021/05/01 07:02:09;;;;;;;22.83;17.77;;;;;;;;;;5073002;28;20421;-74
2021/05/01 07:04:36;;;;;;;21.53;15.73;;;;;;;;;;5072777;28;20431;-75
2021/05/01 07:07:02;;;;;;;20.40;15.07;;;;;;;;;;5072141;28;20496;-74
2021/05/01 07:09:28;;;;;;;16.40;13.90;;;;;;;;;;5072497;28;20409;-72
2021/05/01 07:14:59;;;;;;;20.37;16.00;;;;;;;;;;5072588;28;20511;-75
2021/05/01 07:17:25;;;;;;;16.73;13.67;;;;;;;;;;5072410;28;20398;-73
2021/05/01 07:19:51;;;;;;;18.90;15.57;;;;;;;;;;5072328;28;20403;-74
2021/05/01 07:22:17;;;;;;;19.10;15.67;;;;;;;;;;5072364;28;20434;-74
2021/05/01 07:24:43;;;;;;;20.17;14.60;;;;;;;;;;5072234;28;20409;-73
2021/05/01 07:30:13;;;;;;;22.00;16.30;;;;;;;;;;5071741;28;20417;-73
2021/05/01 07:32:41;;;;;;;19.23;15.70;;;;;;;;;;5072282;28;20402;-77
2021/05/01 07:35:08;;;;;;;24.97;18.43;;;;;;;;;;5071857;28;20455;-73
2021/05/01 07:37:38;;;;;;;22.37;16.70;;;;;;;;;;5071918;28;20403;-73
2021/05/01 07:40:05;;;;;;;22.90;18.00;;;;;;;;;;5072445;28;20476;-84
2021/05/01 07:42:37;;;;;;;24.40;17.93;;;;;;;;;;5072169;28;20427;-79
2021/05/01 07:45:03;;;;;;;25.20;18.77;;;;;;;;;;5072241;28;20419;-76
2021/05/01 07:47:30;;;;;;;26.47;18.87;;;;;;;;;;5070978;28;20819;-73
2021/05/01 07:49:56;;;;;;;25.87;19.47;;;;;;;;;;5071894;28;20411;-74
2021/05/01 07:52:23;;;;;;;22.23;17.63;;;;;;;;;;5070410;28;20573;-81
2021/05/01 07:54:49;;;;;;;25.87;18.47;;;;;;;;;;5071534;28;20411;-83
2021/05/01 08:00:19;;;;;;;24.03;19.27;;;;;;;;;;5071607;28;20468;-74
2021/05/01 08:02:45;;;;;;;22.93;18.47;;;;;;;;;;5071947;28;20406;-79
2021/05/01 08:05:11;;;;;;;27.47;20.40;;;;;;;;;;5072059;28;20426;-74
2021/05/01 08:07:38;;;;;;;26.07;19.07;;;;;;;;;;5072168;28;20575;-73
2021/05/01 08:10:05;;;;;;;21.77;17.47;;;;;;;;;;5074240;28;20768;-72
2021/05/01 08:15:34;;;;;;;26.10;19.60;;;;;;;;;;5076793;28;20413;-75
2021/05/01 08:18:01;;;;;;;25.00;19.80;;;;;;;;;;5084190;28;20513;-75
2021/05/01 08:20:28;;;;;;;24.47;19.80;;;;;;;;;;5077540;28;20422;-75
2021/05/01 08:22:55;;;;;;;24.53;19.63;;;;;;;;;;5075548;28;20541;-76
2021/05/01 08:25:21;;;;;;;26.30;20.07;;;;;;;;;;5075657;28;20410;-78
2021/05/01 08:30:50;;;;;;;28.20;20.87;;;;;;;;;;5075470;28;20444;-78
2021/05/01 08:33:16;;;;;;;24.40;19.60;;;;;;;;;;5075579;28;20761;-76
2021/05/01 08:35:42;;;;;;;25.13;19.57;;;;;;;;;;5075620;28;20418;-82
2021/05/01 08:38:08;;;;;;;26.10;21.40;;;;;;;;;;5076011;28;20402;-77
2021/05/01 08:40:35;;;;;;;32.70;22.60;;;;;;;;;;5074804;28;20525;-75
2021/05/01 08:43:01;;;;;;;24.20;18.83;;;;;;;;;;5075737;28;20418;-74
2021/05/01 08:45:28;;;;;;;25.57;19.23;;;;;;;;;;5075405;28;20494;-75
2021/05/01 08:47:55;;;;;;;20.30;17.73;;;;;;;;;;5075382;28;20494;-74
2021/05/01 08:50:27;;;;;;;24.70;18.67;;;;;;;;;;5075395;28;20411;-74
2021/05/01 08:52:56;;;;;;;24.17;18.60;;;;;;;;;;5074994;28;20428;-86
2021/05/01 08:55:26;;;;;;;23.00;18.80;;;;;;;;;;5074821;28;20903;-76
2021/05/01 09:00:56;;;;;;;23.60;18.40;;;;;;;;;;5075042;28;20762;-73
2021/05/01 09:03:23;;;;;;;23.93;18.50;;;;;;;;;;5075180;28;20399;-82
2021/05/01 09:05:59;;;;;;;19.70;17.07;;;;;;;;;;5075012;28;20816;-79
2021/05/01 09:08:27;;;;;;;22.40;18.27;;;;;;;;;;5074862;28;20423;-83
2021/05/01 09:10:54;;;;;;;24.10;19.13;;;;;;;;;;5074188;28;20837;-74
2021/05/01 09:13:21;;;;;;;22.70;17.00;;;;;;;;;;5073248;28;20792;-80
2021/05/01 09:16:05;;;;;;;19.30;16.43;;;;;;;;;;5074028;28;20411;-79
2021/05/01 09:18:48;;;;;;;19.40;16.60;;;;;;;;;;5074039;28;20416;-76
2021/05/01 09:21:25;;;;;;;21.03;16.67;;;;;;;;;;5074219;28;20447;-83
2021/05/01 09:23:52;;;;;;;23.30;18.00;;;;;;;;;;5075947;28;20433;-77
2021/05/01 09:26:20;;;;;;;19.80;15.80;;;;;;;;;;5075715;28;20467;-76
2021/05/01 09:28:52;;;;;;;21.17;15.67;;;;;;;;;;5074533;28;20450;-75
2021/05/01 09:31:19;;;;;;;17.33;15.37;;;;;;;;;;5071348;28;20936;-76
2021/05/01 09:33:54;;;;;;;23.07;17.80;;;;;;;;;;5070955;28;20402;-80
2021/05/01 09:36:20;;;;;;;21.47;16.00;;;;;;;;;;5073046;28;20508;-78
2021/05/01 09:38:50;;;;;;;18.80;13.90;;;;;;;;;;5072772;28;20429;-74
2021/05/01 09:41:18;;;;;;;18.23;15.50;;;;;;;;;;5072642;28;20447;-79
2021/05/01 09:43:55;;;;;;;21.33;17.13;;;;;;;;;;5072563;28;20413;-80
2021/05/01 09:46:22;;;;;;;17.33;14.90;;;;;;;;;;5072506;28;20468;-78
2021/05/01 09:49:02;;;;;;;25.13;18.50;;;;;;;;;;5071315;28;20487;-79
2021/05/01 09:51:43;;;;;;;20.67;16.43;;;;;;;;;;5072526;28;20433;-78
2021/05/01 09:54:10;;;;;;;21.63;15.33;;;;;;;;;;5072247;28;20421;-76
2021/05/01 09:56:37;;;;;;;18.17;15.87;;;;;;;;;;5072556;28;20816;-78
2021/05/01 09:59:03;;;;;;;19.77;15.40;;;;;;;;;;5073863;28;20409;-80
2021/05/01 10:01:29;;;;;;;17.67;15.43;;;;;;;;;;5071992;28;20426;-77
2021/05/01 10:04:12;;;;;;;59.27;16.73;;;;;;;;;;5071803;28;20429;-75
2021/05/01 10:06:41;;;;;;;16.67;14.77;;;;;;;;;;5072856;28;20473;-75
2021/05/01 10:09:08;;;;;;;18.93;14.60;;;;;;;;;;5073502;28;20418;-76
2021/05/01 10:11:35;;;;;;;17.53;15.50;;;;;;;;;;5079367;28;20549;-77
2021/05/01 10:14:01;;;;;;;19.53;16.37;;;;;;;;;;5073220;28;20425;-73
2021/05/01 10:16:27;;;;;;;19.60;15.77;;;;;;;;;;5072395;28;20525;-74
2021/05/01 10:19:06;;;;;;;17.33;14.00;;;;;;;;;;5072361;28;20930;-77
2021/05/01 10:21:34;;;;;;;21.43;16.20;;;;;;;;;;5072383;28;20495;-75
2021/05/01 10:24:00;;;;;;;17.47;15.30;;;;;;;;;;5072311;28;20418;-73
2021/05/01 10:26:26;;;;;;;17.47;15.20;;;;;;;;;;5072336;28;20483;-72
2021/05/01 10:31:56;;;;;;;20.33;13.30;;;;;;;;;;5072425;28;20915;-73
2021/05/01 10:34:26;;;;;;;17.20;14.03;;;;;;;;;;5071856;28;20493;-75
2021/05/01 10:36:59;;;;;;;16.00;14.10;;;;;;;;;;5071810;28;20854;-74
2021/05/01 10:39:25;;;;;;;17.07;14.90;;;;;;;;;;5071921;28;20446;-74
2021/05/01 10:41:55;;;;;;;20.50;17.27;;;;;;;;;;5071773;28;20427;-73
2021/05/01 10:44:21;;;;;;;17.80;15.30;;;;;;;;;;5071886;28;20419;-73
2021/05/01 10:46:47;;;;;;;19.53;15.57;;;;;;;;;;5071832;28;20470;-73
2021/05/01 10:49:14;;;;;;;17.80;15.90;;;;;;;;;;5072167;28;20748;-76
2021/05/01 10:51:40;;;;;;;28.40;23.50;;;;;;;;;;5071848;28;20887;-73
2021/05/01 10:54:18;;;;;;;18.87;16.80;;;;;;;;;;5071823;28;20410;-75
2021/05/01 10:56:47;;;;;;;20.30;14.93;;;;;;;;;;5071533;28;20414;-79
2021/05/01 11:02:17;;;;;;;20.23;15.20;;;;;;;;;;5071304;28;20409;-75
2021/05/01 11:04:48;;;;;;;17.50;14.10;;;;;;;;;;5071668;28;20764;-77
2021/05/01 11:07:19;;;;;;;16.13;14.43;;;;;;;;;;5071170;28;20612;-72
2021/05/01 11:09:48;;;;;;;17.70;15.07;;;;;;;;;;5070301;28;20456;-74
2021/05/01 11:12:15;;;;;;;18.50;15.77;;;;;;;;;;5072416;28;20897;-78
2021/05/01 11:15:04;;;;;;;18.73;16.27;;;;;;;;;;5071717;28;20772;-78
2021/05/01 11:17:30;;;;;;;18.70;16.63;;;;;;;;;;5072738;28;20425;-73
2021/05/01 11:20:00;;;;;;;17.20;14.47;;;;;;;;;;5072260;28;20409;-78
2021/05/01 11:22:27;;;;;;;20.90;16.00;;;;;;;;;;5072005;28;20496;-75
2021/05/01 11:24:54;;;;;;;20.13;17.23;;;;;;;;;;5070344;28;20418;-77
2021/05/01 11:27:21;;;;;;;20.57;15.90;;;;;;;;;;5070174;28;20481;-73
2021/05/01 11:29:47;;;;;;;19.10;16.93;;;;;;;;;;5071579;28;20414;-74
2021/05/01 11:32:13;;;;;;;21.07;16.40;;;;;;;;;;5069798;28;20564;-76
2021/05/01 11:34:39;;;;;;;19.90;17.50;;;;;;;;;;5071702;28;20940;-73
2021/05/01 11:37:07;;;;;;;23.90;17.17;;;;;;;;;;5070893;28;20422;-73
2021/05/01 11:39:37;;;;;;;21.80;18.80;;;;;;;;;;5071056;28;20442;-72
2021/05/01 11:42:03;;;;;;;20.93;18.47;;;;;;;;;;5070784;28;20418;-75
2021/05/01 11:47:34;;;;;;;20.90;18.10;;;;;;;;;;5075712;28;21009;-72
2021/05/01 11:50:00;;;;;;;22.30;19.53;;;;;;;;;;5075610;28;20424;-74
2021/05/01 11:52:29;;;;;;;20.93;18.30;;;;;;;;;;5074166;28;20428;-75
2021/05/01 11:54:58;;;;;;;24.03;18.50;;;;;;;;;;5075745;28;20807;-76
2021/05/01 12:03:31;;;;;;;23.57;20.23;;;;;;;;;;5075419;28;20413;-78
2021/05/01 12:06:01;;;;;;;22.73;19.33;;;;;;;;;;5077841;28;20871;-74
2021/05/01 12:08:28;;;;;;;22.03;18.73;;;;;;;;;;5085006;28;20426;-79
2021/05/01 12:10:55;;;;;;;25.17;20.30;;;;;;;;;;5077474;28;20457;-74
2021/05/01 12:13:30;;;;;;;22.83;20.40;;;;;;;;;;5075117;28;20437;-74
2021/05/01 12:15:57;;;;;;;24.03;19.23;;;;;;;;;;5075135;28;20434;-73
2021/05/01 12:18:40;;;;;;;21.47;19.20;;;;;;;;;;5074810;28;20899;-77
2021/05/01 12:21:06;;;;;;;21.50;19.17;;;;;;;;;;5074414;28;20505;-78
2021/05/01 12:23:50;;;;;;;23.70;18.70;;;;;;;;;;5074547;28;20441;-80
2021/05/01 12:26:31;;;;;;;21.53;18.13;;;;;;;;;;5074547;28;20472;-78
2021/05/01 12:29:17;;;;;;;22.70;18.53;;;;;;;;;;5074209;28;20493;-76
2021/05/01 12:31:44;;;;;;;22.67;20.10;;;;;;;;;;5074438;28;20417;-81
2021/05/01 12:34:10;;;;;;;21.87;17.83;;;;;;;;;;5074577;28;20403;-78
2021/05/01 12:36:41;;;;;;;24.20;19.50;;;;;;;;;;5074357;28;20605;-77
2021/05/01 12:39:08;;;;;;;21.47;19.17;;;;;;;;;;5074284;28;20418;-76
2021/05/01 12:41:35;;;;;;;22.07;19.23;;;;;;;;;;5074588;28;20410;-75
2021/05/01 12:44:02;;;;;;;22.43;17.83;;;;;;;;;;5074316;28;20475;-74
2021/05/01 12:46:31;;;;;;;22.70;18.73;;;;;;;;;;5074185;28;20474;-74
2021/05/01 12:49:01;;;;;;;20.87;18.67;;;;;;;;;;5074402;28;20406;-75
2021/05/01 12:51:28;;;;;;;22.57;20.03;;;;;;;;;;5074401;28;20501;-75
2021/05/01 12:53:55;;;;;;;22.80;18.80;;;;;;;;;;5073895;28;20435;-74
2021/05/01 12:56:30;;;;;;;24.80;20.80;;;;;;;;;;5073648;28;20415;-74
2021/05/01 12:59:15;;;;;;;26.57;20.97;;;;;;;;;;5073889;28;20471;-75
2021/05/01 13:01:41;;;;;;;25.23;20.40;;;;;;;;;;5074058;28;20402;-71
2021/05/01 13:04:25;;;;;;;20.47;18.23;;;;;;;;;;5073835;28;20430;-76
2021/05/01 13:06:59;;;;;;;23.20;18.40;;;;;;;;;;5073966;28;20473;-74
2021/05/01 13:09:29;;;;;;;22.40;19.83;;;;;;;;;;5073510;28;20418;-80
2021/05/01 13:12:05;;;;;;;25.07;19.90;;;;;;;;;;5073649;28;20539;-80
2021/05/01 13:14:31;;;;;;;23.60;19.37;;;;;;;;;;5073840;28;20541;-75
2021/05/01 13:16:57;;;;;;;26.93;20.93;;;;;;;;;;5073838;28;20414;-82
2021/05/01 13:19:23;;;;;;;24.57;20.53;;;;;;;;;;5074778;28;20407;-80
2021/05/01 13:21:57;;;;;;;23.73;20.20;;;;;;;;;;5075105;28;20831;-76
2021/05/01 13:24:25;;;;;;;27.57;20.63;;;;;;;;;;5075164;28;20410;-75
2021/05/01 13:26:52;;;;;;;27.97;20.97;;;;;;;;;;5073956;28;20524;-74
2021/05/01 13:29:18;;;;;;;24.67;19.73;;;;;;;;;;5073364;28;20464;-76
2021/05/01 13:31:48;;;;;;;25.23;21.47;;;;;;;;;;5073387;28;20422;-76
2021/05/01 13:34:16;;;;;;;28.07;20.80;;;;;;;;;;5073461;28;20464;-81
2021/05/01 13:36:42;;;;;;;24.90;21.13;;;;;;;;;;5072902;28;20531;-74
2021/05/01 13:39:16;;;;;;;23.70;21.10;;;;;;;;;;5072855;28;20517;-85
2021/05/01 13:41:42;;;;;;;25.90;20.90;;;;;;;;;;5073316;28;20410;-87
2021/05/01 13:44:10;;;;;;;23.40;19.83;;;;;;;;;;5073436;28;20416;-87
2021/05/01 13:46:44;;;;;;;25.47;20.23;;;;;;;;;;5074090;28;20465;-83
2021/05/01 13:49:10;;;;;;;25.07;21.20;;;;;;;;;;5072826;28;20433;-86
2021/05/01 13:51:36;;;;;;;24.13;21.13;;;;;;;;;;5073966;28;20470;-84
2021/05/01 13:54:09;;;;;;;23.33;19.97;;;;;;;;;;5072088;28;20410;-78
2021/05/01 13:56:40;;;;;;;25.53;20.90;;;;;;;;;;5071982;28;20410;-76
2021/05/01 13:59:06;;;;;;;27.33;23.17;;;;;;;;;;5072184;28;20983;-78
2021/05/01 14:01:43;;;;;;;26.53;21.50;;;;;;;;;;5072513;28;20437;-78
2021/05/01 14:04:27;;;;;;;25.30;21.53;;;;;;;;;;5076002;28;20475;-81
2021/05/01 14:06:55;;;;;;;24.00;21.00;;;;;;;;;;5082474;28;20693;-77
2021/05/01 14:09:24;;;;;;;24.80;22.20;;;;;;;;;;5081597;28;20413;-78
2021/05/01 14:11:50;;;;;;;27.77;23.97;;;;;;;;;;5072326;28;21006;-75
2021/05/01 14:14:16;;;;;;;21.47;19.20;;;;;;;;;;5071941;28;20421;-76
2021/05/01 14:16:42;;;;;;;28.80;23.80;;;;;;;;;;5072239;28;20428;-73
2021/05/01 14:19:18;;;;;;;29.20;23.00;;;;;;;;;;5071967;28;20445;-82
2021/05/01 14:21:44;;;;;;;27.30;22.17;;;;;;;;;;5071971;28;20405;-79
2021/05/01 14:24:10;;;;;;;30.20;22.80;;;;;;;;;;5071704;28;20539;-81
2021/05/01 14:26:36;;;;;;;30.47;23.40;;;;;;;;;;5071538;28;20460;-83
2021/05/01 14:29:06;;;;;;;27.43;22.53;;;;;;;;;;5071632;28;20512;-78
2021/05/01 14:31:32;;;;;;;32.30;22.50;;;;;;;;;;5071601;28;20460;-82
2021/05/01 14:33:59;;;;;;;24.80;20.03;;;;;;;;;;5071602;28;20899;-76
2021/05/01 14:36:26;;;;;;;26.80;22.83;;;;;;;;;;5072289;28;20517;-85
2021/05/01 14:38:55;;;;;;;24.53;20.93;;;;;;;;;;5071626;28;20425;-80
2021/05/01 14:41:26;;;;;;;27.47;22.27;;;;;;;;;;5071834;28;20409;-81
2021/05/01 14:43:52;;;;;;;29.47;21.47;;;;;;;;;;5071256;28;20419;-85
2021/05/01 14:46:22;;;;;;;32.90;22.50;;;;;;;;;;5070685;28;20468;-87
2021/05/01 14:49:07;;;;;;;23.33;20.40;;;;;;;;;;5071577;28;20417;-78
2021/05/01 14:51:38;;;;;;;24.90;21.13;;;;;;;;;;5072587;28;20413;-79
2021/05/01 14:54:08;;;;;;;26.10;20.13;;;;;;;;;;5072434;28;20625;-83
2021/05/01 14:56:34;;;;;;;27.10;21.20;;;;;;;;;;5072351;28;20429;-75
2021/05/01 14:59:00;;;;;;;29.50;22.00;;;;;;;;;;5072336;28;20504;-87
2021/05/01 15:01:26;;;;;;;27.33;22.73;;;;;;;;;;5072779;28;20496;-78
2021/05/01 15:04:07;;;;;;;28.80;21.53;;;;;;;;;;5072279;28;20551;-75
2021/05/01 15:06:34;;;;;;;30.43;21.90;;;;;;;;;;5072942;28;20529;-78
2021/05/01 15:09:00;;;;;;;32.20;21.53;;;;;;;;;;5071599;28;20507;-79
2021/05/01 15:11:32;;;;;;;25.30;21.03;;;;;;;;;;5073603;28;20493;-83
2021/05/01 15:20:18;;;;;;;28.73;22.17;;;;;;;;;;5078820;28;20391;-83
2021/05/01 15:22:44;;;;;;;27.57;21.13;;;;;;;;;;5078662;28;20418;-84
2021/05/01 15:25:11;;;;;;;27.40;21.87;;;;;;;;;;5079056;28;20400;-84
2021/05/01 15:27:37;;;;;;;25.73;21.77;;;;;;;;;;5077152;28;20480;-77
2021/05/01 15:30:14;;;;;;;32.57;24.90;;;;;;;;;;5077069;28;20450;-80
2021/05/01 15:32:41;;;;;;;27.57;21.97;;;;;;;;;;5078409;28;20694;-84
2021/05/01 15:35:07;;;;;;;25.47;22.17;;;;;;;;;;5077407;28;20447;-80
2021/05/01 15:37:33;;;;;;;27.73;23.00;;;;;;;;;;5078150;28;20409;-77
2021/05/01 15:39:59;;;;;;;31.50;22.77;;;;;;;;;;5078493;28;20424;-74
2021/05/01 15:42:25;;;;;;;29.30;21.03;;;;;;;;;;5078363;28;20424;-77
2021/05/01 15:44:51;;;;;;;24.80;19.40;;;;;;;;;;5078523;28;20459;-76
2021/05/01 15:47:17;;;;;;;26.37;20.93;;;;;;;;;;5077577;28;20528;-73
2021/05/01 15:49:43;;;;;;;27.33;20.87;;;;;;;;;;5078596;28;20837;-73
2021/05/01 15:52:09;;;;;;;26.17;22.03;;;;;;;;;;5078480;28;20400;-72
2021/05/01 15:54:35;;;;;;;28.10;19.93;;;;;;;;;;5078237;28;20420;-75
2021/05/01 15:57:04;;;;;;;27.07;20.23;;;;;;;;;;5078569;28;20485;-74
2021/05/01 15:59:30;;;;;;;24.63;20.63;;;;;;;;;;5078994;28;20416;-76
2021/05/01 16:05:00;;;;;;;22.53;19.67;;;;;;;;;;5087584;28;20417;-71
2021/05/01 16:07:26;;;;;;;23.83;20.57;;;;;;;;;;5081889;28;20472;-85
2021/05/01 16:09:52;;;;;;;25.73;20.30;;;;;;;;;;5081017;28;20411;-81